Terminal Aerodrome Forecast
Issued by NWS

Home | Current Version | Previous Version | Text Only | Print | Product List | Glossary On
Versions: 1 2 3 4 5 6 7 8 9 10 11 12 13 14 15 16 17 18 19 20 21 22 23 24 25 26 27 28 29 30 31 32 33 34 35 36
000
FTUS41 KBOX 222200 AAA
TAFACK
TAF AMD
KACK 222200Z 2222/2318 06011G18KT P6SM SCT007 OVC013
     FM222300 06017KT 6SM BR VCSH OVC007
     FM230200 06018G28KT 4SM BR VCSH OVC008=

USA.gov is the U.S. government's official web portal to all federal, state and local government web resources and services.